Time;durP1;ratioP1;P1;durP2;ratioP2;P2;SDS_P1;SDS_P2;PMS_P1;PMS_P2;Temp;Humidity;BMP_temperature;BMP_pressure;BME280_temperature;BME280_humidity;BME280_pressure;Samples;Min_cycle;Max_cycle;Signal;HPM_P1;HPM_P2
2021/10/16 00:02:59;;;;;;;27.33;11.80;;;8.30;99.90;;;;;;8408190;28;20229;-79
2021/10/16 00:06:59;;;;;;;12.40;9.10;;;8.20;99.90;;;;;;8405654;28;20567;-79
2021/10/16 00:11:00;;;;;;;12.70;10.10;;;8.20;99.90;;;;;;8413062;28;20186;-80
2021/10/16 00:15:01;;;;;;;12.43;7.50;;;8.10;99.90;;;;;;8403072;28;20185;-78
2021/10/16 00:19:02;;;;;;;22.73;10.43;;;8.00;99.90;;;;;;8398534;28;20212;-78
2021/10/16 00:23:03;;;;;;;18.57;10.03;;;7.90;99.90;;;;;;8375621;28;20555;-80
2021/10/16 00:27:04;;;;;;;16.70;9.40;;;7.90;99.90;;;;;;8393417;28;20437;-80
2021/10/16 00:31:04;;;;;;;31.87;9.23;;;7.80;99.90;;;;;;8392945;28;20278;-80
2021/10/16 00:35:05;;;;;;;14.80;10.13;;;7.80;99.90;;;;;;8401867;28;20548;-80
2021/10/16 00:39:06;;;;;;;17.60;10.03;;;7.70;99.90;;;;;;8391075;28;20242;-80
2021/10/16 00:43:07;;;;;;;20.03;9.50;;;7.60;99.90;;;;;;8401036;28;20631;-80
2021/10/16 00:47:08;;;;;;;20.90;11.47;;;7.60;99.90;;;;;;8395852;28;20574;-80
2021/10/16 00:51:08;;;;;;;23.50;10.10;;;7.60;99.90;;;;;;8396666;28;20633;-80
2021/10/16 00:55:14;;;;;;;22.10;10.20;;;7.60;99.90;;;;;;8386145;28;20175;-80
2021/10/16 00:59:15;;;;;;;26.57;10.53;;;7.60;99.90;;;;;;8403016;28;20206;-79
2021/10/16 01:03:15;;;;;;;30.73;10.87;;;7.60;99.90;;;;;;8395797;22;20457;-72
2021/10/16 01:07:16;;;;;;;22.43;12.27;;;7.50;99.90;;;;;;8353429;28;20172;-72
2021/10/16 01:11:17;;;;;;;29.80;10.80;;;7.50;99.90;;;;;;8336997;28;20203;-72
2021/10/16 01:15:19;;;;;;;23.37;11.80;;;7.50;99.90;;;;;;8336882;28;20267;-72
2021/10/16 01:19:22;;;;;;;19.23;10.40;;;7.50;99.90;;;;;;8353454;28;20207;-72
2021/10/16 01:23:22;;;;;;;25.40;10.10;;;7.50;99.90;;;;;;8336559;28;20918;-73
2021/10/16 01:27:24;;;;;;;19.43;9.47;;;7.40;99.90;;;;;;8337422;28;20419;-72
2021/10/16 01:31:26;;;;;;;26.00;9.10;;;7.40;99.90;;;;;;8335632;28;20180;-72
2021/10/16 01:35:27;;;;;;;20.63;10.20;;;7.30;99.90;;;;;;8336911;28;20510;-72
2021/10/16 01:39:29;;;;;;;23.47;9.20;;;7.30;99.90;;;;;;8336751;28;20474;-73
2021/10/16 01:43:30;;;;;;;19.90;11.17;;;7.20;99.90;;;;;;8336658;28;20703;-73
2021/10/16 01:47:30;;;;;;;16.37;9.80;;;7.10;99.90;;;;;;8336714;28;20432;-73
2021/10/16 01:51:31;;;;;;;23.63;10.10;;;7.00;99.90;;;;;;8334607;28;20711;-73
2021/10/16 01:55:31;;;;;;;22.10;9.60;;;7.00;99.90;;;;;;8351181;28;20661;-73
2021/10/16 01:59:34;;;;;;;29.87;13.00;;;6.90;99.90;;;;;;8335261;28;20282;-72
2021/10/16 02:03:35;;;;;;;17.50;8.90;;;6.90;99.90;;;;;;8335572;28;20216;-73
2021/10/16 02:07:35;;;;;;;15.73;8.50;;;6.80;99.90;;;;;;8335541;28;20423;-73
2021/10/16 02:11:37;;;;;;;20.03;9.90;;;6.80;99.90;;;;;;8335556;28;20180;-73
2021/10/16 02:15:38;;;;;;;13.50;8.97;;;6.70;99.90;;;;;;8335530;28;20186;-73
2021/10/16 02:19:38;;;;;;;32.13;10.50;;;6.70;99.90;;;;;;8334958;28;20459;-73
2021/10/16 02:23:39;;;;;;;19.67;9.30;;;6.60;99.90;;;;;;8328129;28;20451;-73
2021/10/16 02:27:39;;;;;;;25.40;9.93;;;6.50;99.90;;;;;;8333895;28;20191;-73
2021/10/16 02:31:40;;;;;;;16.70;9.90;;;6.50;99.90;;;;;;8314717;28;20575;-73
2021/10/16 02:35:41;;;;;;;20.47;11.07;;;6.50;99.90;;;;;;8301108;28;20227;-73
2021/10/16 02:39:42;;;;;;;29.57;12.70;;;6.50;99.90;;;;;;8301580;28;20649;-73
2021/10/16 02:43:43;;;;;;;28.33;12.10;;;6.50;99.90;;;;;;8301193;28;20419;-73
2021/10/16 02:47:44;;;;;;;31.30;11.63;;;6.60;99.90;;;;;;8301217;28;20633;-73
2021/10/16 02:51:45;;;;;;;29.37;14.97;;;6.60;99.90;;;;;;8301236;28;20621;-73
2021/10/16 02:55:46;;;;;;;22.97;12.77;;;6.70;99.90;;;;;;8301338;28;20446;-73
2021/10/16 02:59:47;;;;;;;27.00;13.40;;;6.80;99.90;;;;;;8317623;28;20459;-73
2021/10/16 03:03:47;;;;;;;33.77;13.70;;;6.90;99.90;;;;;;8316313;28;20236;-73
2021/10/16 03:07:48;;;;;;;26.47;12.90;;;7.00;99.90;;;;;;8301566;28;20187;-73
2021/10/16 03:11:49;;;;;;;28.83;12.97;;;7.10;99.90;;;;;;8300191;28;20227;-73
2021/10/16 03:15:49;;;;;;;25.87;12.77;;;7.10;99.90;;;;;;8300766;28;20173;-73
2021/10/16 03:19:50;;;;;;;34.23;11.67;;;7.20;99.90;;;;;;8301352;28;20212;-73
2021/10/16 03:23:50;;;;;;;30.73;12.60;;;7.10;99.90;;;;;;8300422;28;20180;-74
2021/10/16 03:27:51;;;;;;;26.17;11.93;;;7.20;99.90;;;;;;8315519;28;20193;-74
2021/10/16 03:31:51;;;;;;;24.50;11.20;;;7.10;99.90;;;;;;8315396;28;20172;-73
2021/10/16 03:35:52;;;;;;;25.27;11.20;;;7.10;99.90;;;;;;8297301;28;20271;-73
2021/10/16 03:39:53;;;;;;;19.73;10.60;;;7.10;99.90;;;;;;8300302;28;20560;-73
2021/10/16 03:43:53;;;;;;;16.27;9.90;;;7.00;99.90;;;;;;8299014;28;20176;-73
2021/10/16 03:47:54;;;;;;;21.03;11.17;;;7.00;99.90;;;;;;8299732;28;20648;-74
2021/10/16 03:51:54;;;;;;;26.03;11.77;;;7.00;99.90;;;;;;8299942;28;20172;-73
2021/10/16 03:55:55;;;;;;;23.40;10.10;;;6.90;99.90;;;;;;8299266;28;20226;-73
2021/10/16 03:59:56;;;;;;;24.90;8.63;;;6.80;99.90;;;;;;8299574;28;20576;-73
2021/10/16 04:03:56;;;;;;;22.80;10.03;;;6.80;99.90;;;;;;8314859;28;20325;-74
2021/10/16 04:07:57;;;;;;;20.53;9.97;;;6.70;99.90;;;;;;8347437;28;20227;-73
2021/10/16 04:11:58;;;;;;;17.57;9.23;;;6.60;99.90;;;;;;8332098;28;20191;-73
2021/10/16 04:15:58;;;;;;;25.63;10.07;;;6.60;99.90;;;;;;8332069;28;20180;-73
2021/10/16 04:19:59;;;;;;;16.83;9.33;;;6.50;99.90;;;;;;8331896;28;20640;-73
2021/10/16 04:23:59;;;;;;;15.93;9.50;;;6.40;99.90;;;;;;8335447;28;20701;-73
2021/10/16 04:28:00;;;;;;;31.10;10.63;;;6.30;99.90;;;;;;8338535;28;20527;-72
2021/10/16 04:32:01;;;;;;;27.53;10.30;;;6.30;99.90;;;;;;8338168;28;20634;-73
2021/10/16 04:36:03;;;;;;;22.03;9.60;;;6.30;99.90;;;;;;8338231;28;20183;-73
2021/10/16 04:40:25;;;;;;;27.50;11.50;;;6.30;99.90;;;;;;8337804;28;20202;-73
2021/10/16 04:44:26;;;;;;;18.43;11.20;;;6.20;99.90;;;;;;8338352;28;20402;-73
2021/10/16 04:48:26;;;;;;;22.20;10.03;;;6.20;99.90;;;;;;8338484;28;20410;-73
2021/10/16 04:52:27;;;;;;;37.03;11.10;;;6.10;99.90;;;;;;8338272;28;20415;-73
2021/10/16 04:56:28;;;;;;;22.93;10.27;;;6.10;99.90;;;;;;8336259;28;20199;-73
2021/10/16 05:00:28;;;;;;;18.63;8.27;;;6.10;99.90;;;;;;8338012;28;20643;-73
2021/10/16 05:04:29;;;;;;;30.13;10.50;;;6.00;99.90;;;;;;8337680;28;20231;-73
2021/10/16 05:08:30;;;;;;;13.90;8.33;;;6.00;99.90;;;;;;8337345;28;20184;-73
2021/10/16 05:12:31;;;;;;;17.57;10.17;;;5.90;99.90;;;;;;8337479;28;20410;-73
2021/10/16 05:16:32;;;;;;;24.00;9.70;;;5.90;99.90;;;;;;8337252;28;20422;-73
2021/10/16 05:20:33;;;;;;;17.43;9.00;;;5.80;99.90;;;;;;8337758;28;20422;-73
2021/10/16 05:24:34;;;;;;;18.97;10.57;;;5.80;99.90;;;;;;8336710;28;20425;-73
2021/10/16 05:28:34;;;;;;;16.30;8.50;;;5.80;99.90;;;;;;8337659;28;20187;-73
2021/10/16 05:32:35;;;;;;;20.73;10.03;;;5.80;99.90;;;;;;8332295;28;20183;-73
2021/10/16 05:36:36;;;;;;;21.47;10.37;;;5.80;99.90;;;;;;8336364;28;20319;-72
2021/10/16 05:40:36;;;;;;;21.63;9.80;;;5.80;99.90;;;;;;8337482;28;20493;-74
2021/10/16 05:44:37;;;;;;;17.93;9.30;;;5.80;99.90;;;;;;8336300;28;20187;-74
2021/10/16 05:48:37;;;;;;;18.67;9.23;;;5.90;99.90;;;;;;8336245;28;20180;-74
2021/10/16 05:52:39;;;;;;;26.70;9.57;;;5.90;99.90;;;;;;8347725;28;20180;-74
2021/10/16 05:56:40;;;;;;;25.07;9.00;;;6.00;99.90;;;;;;8318024;28;20191;-74
2021/10/16 06:00:40;;;;;;;22.00;9.23;;;6.00;99.90;;;;;;8303502;28;20911;-74
2021/10/16 06:04:41;;;;;;;15.47;8.53;;;6.00;99.90;;;;;;8317997;28;20232;-74
2021/10/16 06:08:41;;;;;;;17.47;10.43;;;6.00;99.90;;;;;;8302662;28;20537;-74
2021/10/16 06:12:42;;;;;;;20.07;10.90;;;6.00;99.90;;;;;;8318329;28;20181;-73
2021/10/16 06:16:42;;;;;;;25.07;10.57;;;6.00;99.90;;;;;;8301938;28;20220;-74
2021/10/16 06:20:43;;;;;;;23.87;13.37;;;6.00;99.90;;;;;;8302676;28;20276;-74
2021/10/16 06:24:45;;;;;;;27.83;13.67;;;6.10;99.90;;;;;;8303389;28;20188;-74
2021/10/16 06:28:45;;;;;;;29.10;11.50;;;6.10;99.90;;;;;;8301670;28;20173;-74
2021/10/16 06:32:46;;;;;;;39.97;14.60;;;6.20;99.90;;;;;;8318194;28;20420;-73
2021/10/16 06:36:47;;;;;;;31.50;11.40;;;6.30;99.90;;;;;;8314604;28;20216;-75
2021/10/16 06:40:47;;;;;;;43.03;15.07;;;6.40;99.90;;;;;;8322887;28;20194;-74
2021/10/16 06:44:48;;;;;;;29.47;13.27;;;6.50;99.90;;;;;;8323350;28;20233;-74
2021/10/16 06:48:48;;;;;;;23.17;12.50;;;6.60;99.90;;;;;;8311071;28;20196;-73
2021/10/16 06:52:49;;;;;;;30.20;13.07;;;6.70;99.90;;;;;;8319845;28;20195;-73
2021/10/16 06:56:50;;;;;;;25.37;11.37;;;6.80;99.90;;;;;;8299444;28;20200;-74
2021/10/16 07:00:50;;;;;;;28.83;13.10;;;6.80;99.90;;;;;;8316241;28;20181;-74
2021/10/16 07:04:51;;;;;;;26.07;12.50;;;6.90;99.90;;;;;;8330028;28;20721;-74
2021/10/16 07:08:52;;;;;;;19.80;10.87;;;7.00;99.90;;;;;;8334226;28;20555;-74
2021/10/16 07:12:53;;;;;;;21.00;12.77;;;7.10;99.90;;;;;;8332946;28;20176;-74
2021/10/16 07:16:54;;;;;;;15.80;9.47;;;7.40;99.90;;;;;;8332658;28;20201;-74
2021/10/16 07:20:54;;;;;;;15.63;9.37;;;7.70;99.90;;;;;;8333772;28;20748;-74
2021/10/16 07:24:55;;;;;;;12.20;7.30;;;8.10;99.90;;;;;;8332355;28;20186;-74
2021/10/16 07:28:56;;;;;;;16.03;8.37;;;8.40;99.90;;;;;;8333199;28;20186;-74
2021/10/16 07:32:56;;;;;;;16.40;8.00;;;8.60;99.90;;;;;;8333425;28;20179;-75
2021/10/16 07:36:57;;;;;;;15.23;8.83;;;9.00;99.90;;;;;;8333446;28;20211;-73
2021/10/16 07:40:57;;;;;;;32.70;10.37;;;9.30;99.90;;;;;;8331986;28;20217;-73
2021/10/16 07:44:58;;;;;;;10.03;6.83;;;9.60;99.90;;;;;;8332757;28;20512;-74
2021/10/16 07:48:59;;;;;;;15.83;6.67;;;9.90;99.90;;;;;;8331064;28;20179;-74
2021/10/16 07:52:59;;;;;;;13.63;6.63;;;10.20;99.90;;;;;;8333124;28;20208;-74
2021/10/16 07:57:01;;;;;;;15.57;7.20;;;10.50;99.90;;;;;;8331415;28;20298;-74
2021/10/16 08:01:02;;;;;;;11.60;5.70;;;10.90;99.80;;;;;;8332568;28;20176;-74
2021/10/16 08:05:03;;;;;;;10.00;7.33;;;11.30;99.20;;;;;;8332621;28;20484;-74
2021/10/16 08:09:04;;;;;;;11.73;6.23;;;11.60;99.00;;;;;;8332595;28;20666;-74
2021/10/16 08:13:05;;;;;;;15.17;8.07;;;12.00;98.80;;;;;;8331827;28;20430;-74
2021/10/16 08:17:05;;;;;;;15.33;6.80;;;12.30;98.40;;;;;;8332228;28;20458;-74
2021/10/16 08:21:06;;;;;;;29.53;8.13;;;12.60;97.90;;;;;;8333810;28;20179;-74
2021/10/16 08:25:08;;;;;;;17.83;6.50;;;13.00;97.50;;;;;;8332544;28;20250;-74
2021/10/16 08:29:08;;;;;;;17.63;8.90;;;13.50;97.20;;;;;;8332096;28;20204;-74
2021/10/16 08:33:09;;;;;;;26.40;12.73;;;14.00;96.50;;;;;;8331354;28;20429;-74
2021/10/16 08:37:10;;;;;;;19.40;9.87;;;14.40;95.70;;;;;;8331218;28;20211;-74
2021/10/16 08:41:12;;;;;;;24.17;10.03;;;14.70;95.00;;;;;;8332660;28;20606;-74
2021/10/16 08:45:12;;;;;;;19.77;8.13;;;14.90;94.60;;;;;;8332136;28;20188;-75
2021/10/16 08:49:14;;;;;;;21.53;10.50;;;15.20;93.40;;;;;;8328351;28;20433;-74
2021/10/16 08:53:15;;;;;;;15.20;7.43;;;15.80;93.10;;;;;;8325549;28;20230;-76
2021/10/16 08:57:16;;;;;;;20.10;8.60;;;16.30;92.30;;;;;;8311129;28;20470;-74
2021/10/16 09:01:17;;;;;;;26.70;8.20;;;16.60;91.00;;;;;;8318164;28;20438;-74
2021/10/16 09:05:18;;;;;;;20.73;7.47;;;16.80;89.40;;;;;;8330017;28;20227;-74
2021/10/16 09:09:26;;;;;;;18.93;7.90;;;17.10;86.80;;;;;;8335088;28;20445;-73
2021/10/16 09:13:42;;;;;;;24.73;8.43;;;17.50;86.00;;;;;;8324118;28;20683;-73
2021/10/16 09:18:02;;;;;;;15.47;7.90;;;18.00;84.50;;;;;;8329933;28;20491;-74
2021/10/16 09:22:08;;;;;;;23.63;7.70;;;18.60;82.50;;;;;;8333404;28;20449;-74
2021/10/16 09:26:09;;;;;;;11.50;8.00;;;19.20;82.00;;;;;;8321164;28;20496;-75
2021/10/16 09:34:25;;;;;;;17.00;8.00;;;20.20;78.90;;;;;;8364241;28;20215;-75
2021/10/16 09:38:55;;;;;;;17.20;7.43;;;20.60;78.40;;;;;;8380572;28;20540;-74
2021/10/16 09:42:56;;;;;;;20.97;8.10;;;21.00;77.40;;;;;;8359927;28;20843;-75
2021/10/16 09:47:15;;;;;;;12.13;6.50;;;21.10;75.60;;;;;;8369989;28;20516;-75
2021/10/16 09:51:18;;;;;;;17.37;7.93;;;21.00;76.10;;;;;;8341039;28;20188;-74
2021/10/16 09:55:19;;;;;;;14.10;8.53;;;20.80;75.40;;;;;;8367609;28;20431;-74
2021/10/16 09:59:23;;;;;;;20.63;7.03;;;20.50;74.90;;;;;;8368928;28;20457;-75
2021/10/16 10:03:26;;;;;;;12.33;6.10;;;20.20;75.30;;;;;;8369542;28;20714;-73
2021/10/16 10:07:27;;;;;;;10.47;5.20;;;19.90;75.60;;;;;;8349286;28;20529;-73
2021/10/16 10:11:28;;;;;;;13.00;6.60;;;19.70;73.50;;;;;;8367211;28;20430;-73
2021/10/16 10:15:29;;;;;;;25.83;6.70;;;19.50;74.30;;;;;;8368351;28;20414;-72
2021/10/16 10:19:36;;;;;;;14.10;6.03;;;19.40;76.20;;;;;;8353593;28;20569;-72
2021/10/16 10:23:55;;;;;;;16.30;6.37;;;19.30;75.60;;;;;;8363114;28;20196;-73
2021/10/16 10:27:56;;;;;;;16.03;6.60;;;19.60;76.30;;;;;;8334720;28;20438;-73
2021/10/16 10:32:03;;;;;;;14.43;5.53;;;19.80;75.20;;;;;;8343090;28;20478;-72
2021/10/16 10:36:04;;;;;;;18.03;6.70;;;19.80;73.80;;;;;;8342721;28;20434;-73
2021/10/16 10:40:20;;;;;;;14.57;6.40;;;19.80;74.50;;;;;;8358983;28;20485;-72
2021/10/16 10:44:44;;;;;;;18.17;6.40;;;19.90;74.30;;;;;;8335303;28;20184;-72
2021/10/16 10:48:47;;;;;;;17.73;6.07;;;19.90;74.70;;;;;;8341677;28;20967;-72
2021/10/16 10:52:57;;;;;;;14.43;5.43;;;20.10;74.30;;;;;;8367071;28;20414;-72
2021/10/16 10:56:58;;;;;;;20.50;6.23;;;19.80;73.60;;;;;;8365510;28;20457;-72
2021/10/16 11:00:58;;;;;;;17.60;5.00;;;19.70;74.60;;;;;;8367000;28;20418;-72
2021/10/16 11:05:02;;;;;;;15.57;7.20;;;19.50;72.80;;;;;;8366277;28;20619;-72
2021/10/16 11:09:16;;;;;;;10.10;5.70;;;19.10;73.30;;;;;;8366646;28;20672;-72
2021/10/16 11:13:20;;;;;;;23.73;6.03;;;18.80;74.30;;;;;;8367911;28;20805;-73
2021/10/16 11:17:21;;;;;;;16.53;6.60;;;18.70;75.40;;;;;;8367801;28;20533;-73
2021/10/16 11:21:22;;;;;;;18.80;5.27;;;18.60;75.40;;;;;;8366891;28;20434;-71
2021/10/16 11:25:26;;;;;;;12.97;5.00;;;18.60;75.20;;;;;;8366148;28;20438;-73
2021/10/16 11:29:31;;;;;;;12.30;5.50;;;18.50;74.10;;;;;;8365665;28;20183;-73
2021/10/16 11:33:35;;;;;;;18.33;5.03;;;18.50;75.00;;;;;;8366106;28;20435;-72
2021/10/16 11:37:46;;;;;;;13.77;5.83;;;18.70;74.00;;;;;;8366076;28;20499;-71
2021/10/16 11:41:54;;;;;;;14.80;5.57;;;18.40;74.80;;;;;;8365534;28;20438;-72
2021/10/16 11:45:55;;;;;;;12.20;6.40;;;18.60;75.00;;;;;;8366492;28;20448;-72
2021/10/16 11:49:56;;;;;;;19.70;6.80;;;18.70;74.90;;;;;;8364492;28;20926;-72
2021/10/16 11:53:57;;;;;;;25.33;6.00;;;18.80;75.50;;;;;;8364683;28;20425;-73
2021/10/16 11:58:05;;;;;;;17.37;7.53;;;18.70;76.40;;;;;;8365222;28;20234;-73
2021/10/16 12:02:06;;;;;;;20.70;5.73;;;18.80;75.40;;;;;;8365980;28;20261;-72
2021/10/16 12:06:12;;;;;;;20.03;6.20;;;18.70;75.10;;;;;;8365100;28;20818;-72
2021/10/16 12:10:19;;;;;;;12.80;5.40;;;18.50;76.40;;;;;;8363903;28;20187;-73
2021/10/16 12:14:22;;;;;;;7.70;5.60;;;18.40;76.00;;;;;;8366176;28;20512;-74
2021/10/16 12:18:25;;;;;;;22.73;6.13;;;18.30;75.80;;;;;;8365018;28;20468;-74
2021/10/16 12:22:26;;;;;;;14.40;5.70;;;18.50;75.40;;;;;;8363939;28;20429;-77
2021/10/16 12:26:29;;;;;;;15.80;5.20;;;18.90;74.90;;;;;;8363350;28;20422;-75
2021/10/16 12:30:30;;;;;;;15.43;5.10;;;18.90;74.10;;;;;;8363734;28;20179;-75
2021/10/16 12:34:32;;;;;;;8.43;4.70;;;18.90;74.90;;;;;;8363831;28;20509;-74
2021/10/16 12:38:46;;;;;;;19.07;6.40;;;19.20;74.60;;;;;;8363824;28;20199;-75
2021/10/16 12:42:47;;;;;;;15.27;5.50;;;19.10;73.80;;;;;;8366354;28;20794;-73
2021/10/16 12:47:04;;;;;;;41.07;7.27;;;18.90;75.60;;;;;;8370936;28;20418;-74
2021/10/16 12:51:06;;;;;;;13.60;6.50;;;18.80;75.20;;;;;;8371496;28;20206;-75
2021/10/16 12:55:13;;;;;;;10.57;5.90;;;18.50;75.70;;;;;;8371093;28;20500;-73
2021/10/16 12:59:13;;;;;;;18.20;6.63;;;18.20;76.20;;;;;;8371306;28;20464;-73
2021/10/16 13:03:15;;;;;;;16.97;6.80;;;18.00;77.10;;;;;;8370896;28;20952;-74
2021/10/16 13:07:19;;;;;;;33.80;12.70;;;17.90;77.80;;;;;;8367662;28;20192;-74
2021/10/16 13:11:20;;;;;;;14.97;7.57;;;17.80;78.00;;;;;;8369965;28;20420;-70
2021/10/16 13:15:21;;;;;;;14.80;6.13;;;17.60;78.50;;;;;;8370145;28;20446;-71
2021/10/16 13:19:22;;;;;;;13.70;6.83;;;17.30;79.50;;;;;;8367019;28;20209;-70
2021/10/16 13:23:22;;;;;;;14.77;6.70;;;17.30;80.00;;;;;;8370793;28;20502;-73
2021/10/16 13:27:23;;;;;;;16.43;5.40;;;17.30;79.70;;;;;;8349648;28;20226;-73
2021/10/16 13:31:29;;;;;;;14.90;5.50;;;17.20;80.00;;;;;;8336815;28;20254;-72
2021/10/16 13:35:30;;;;;;;16.67;6.20;;;17.20;80.50;;;;;;8336485;28;20163;-70
2021/10/16 13:39:30;;;;;;;22.47;6.17;;;17.20;80.10;;;;;;8337065;28;20461;-75
2021/10/16 13:43:31;;;;;;;11.93;5.13;;;17.20;79.50;;;;;;8337486;28;20194;-76
2021/10/16 13:47:32;;;;;;;8.90;4.30;;;17.10;79.00;;;;;;8336609;28;20537;-77
2021/10/16 13:51:32;;;;;;;9.30;6.60;;;17.00;79.80;;;;;;8344311;28;20535;-78
2021/10/16 13:55:34;;;;;;;13.83;6.07;;;17.00;80.00;;;;;;8336699;28;20214;-75
2021/10/16 13:59:34;;;;;;;17.37;6.63;;;17.00;80.20;;;;;;8335991;28;20537;-76
2021/10/16 14:03:35;;;;;;;20.20;7.10;;;16.80;80.40;;;;;;8336015;28;20421;-75
2021/10/16 14:07:35;;;;;;;24.70;9.07;;;16.70;80.70;;;;;;8335718;28;20190;-76
2021/10/16 14:11:36;;;;;;;24.57;8.43;;;16.70;81.10;;;;;;8336815;28;20626;-76
2021/10/16 14:15:37;;;;;;;21.87;9.63;;;16.60;81.10;;;;;;8336490;28;20176;-75
2021/10/16 14:19:37;;;;;;;30.03;8.47;;;16.40;82.30;;;;;;8334879;28;20538;-73
2021/10/16 14:23:39;;;;;;;20.77;6.70;;;16.40;82.60;;;;;;8335740;28;20258;-75
2021/10/16 14:27:41;;;;;;;19.63;7.10;;;16.30;82.40;;;;;;8335546;28;20176;-76
2021/10/16 14:31:41;;;;;;;14.67;7.30;;;16.30;82.60;;;;;;8350963;28;20479;-77
2021/10/16 14:35:42;;;;;;;20.93;7.17;;;16.20;82.50;;;;;;8335421;28;20419;-75
2021/10/16 14:39:43;;;;;;;11.97;7.70;;;16.20;82.30;;;;;;8348628;28;20208;-76
2021/10/16 14:43:43;;;;;;;18.43;8.70;;;16.00;82.70;;;;;;8340891;28;20624;-75
2021/10/16 14:47:44;;;;;;;20.57;7.30;;;15.80;83.50;;;;;;8370455;28;20184;-79
2021/10/16 14:51:45;;;;;;;23.97;8.60;;;15.70;84.00;;;;;;8374807;28;20321;-78
2021/10/16 14:55:45;;;;;;;21.73;7.78;;;15.70;84.00;;;;;;8366632;28;20424;-76
2021/10/16 14:59:46;;;;;;;20.27;7.07;;;15.70;84.70;;;;;;8368423;28;20203;-77
2021/10/16 15:03:49;;;;;;;12.43;6.90;;;15.70;84.40;;;;;;8367860;28;20179;-76
2021/10/16 15:07:50;;;;;;;28.77;7.90;;;15.70;84.50;;;;;;8342260;28;20195;-75
2021/10/16 15:11:52;;;;;;;19.53;7.10;;;15.60;84.40;;;;;;8350205;28;20473;-73
2021/10/16 15:15:53;;;;;;;18.60;9.27;;;15.50;85.20;;;;;;8364122;28;20529;-78
2021/10/16 15:19:53;;;;;;;19.57;8.00;;;15.50;85.10;;;;;;8375096;28;20230;-75
2021/10/16 15:23:55;;;;;;;19.13;6.53;;;15.40;85.60;;;;;;8361463;28;20442;-79
2021/10/16 15:27:56;;;;;;;18.60;6.50;;;15.30;84.60;;;;;;8347993;28;20191;-78
2021/10/16 15:31:57;;;;;;;14.87;6.23;;;15.30;84.90;;;;;;8345311;28;20806;-77
2021/10/16 15:35:57;;;;;;;14.20;6.37;;;15.20;86.00;;;;;;8366327;28;20533;-77
2021/10/16 15:39:58;;;;;;;13.77;7.50;;;15.10;87.20;;;;;;8368691;28;20206;-78
2021/10/16 15:43:59;;;;;;;16.50;7.33;;;15.10;86.40;;;;;;8368816;28;20175;-77
2021/10/16 15:47:59;;;;;;;19.53;7.33;;;15.00;87.90;;;;;;8370991;28;20229;-78
2021/10/16 15:52:00;;;;;;;14.00;6.30;;;14.90;87.90;;;;;;8374910;28;20188;-77
2021/10/16 15:56:01;;;;;;;13.53;5.97;;;14.80;88.60;;;;;;8370111;28;20183;-76
2021/10/16 16:00:06;;;;;;;14.73;6.13;;;14.70;89.00;;;;;;8367688;28;20593;-76
2021/10/16 16:04:06;;;;;;;18.50;5.73;;;14.60;89.20;;;;;;8367005;28;20173;-76
2021/10/16 16:08:07;;;;;;;14.70;7.10;;;14.50;89.10;;;;;;8366291;28;20425;-78
2021/10/16 16:12:08;;;;;;;26.33;7.00;;;14.50;89.40;;;;;;8366711;28;20171;-77
2021/10/16 16:16:10;;;;;;;19.53;6.10;;;14.40;89.70;;;;;;8367385;28;20433;-76
2021/10/16 16:20:13;;;;;;;13.23;6.57;;;14.40;89.80;;;;;;8373887;28;20490;-77
2021/10/16 16:24:14;;;;;;;50.42;37.30;;;14.30;90.10;;;;;;8377267;28;20420;-75
2021/10/16 16:28:14;;;;;;;15.87;7.37;;;14.30;90.00;;;;;;8375911;28;20201;-76
2021/10/16 16:32:16;;;;;;;15.80;6.63;;;14.30;89.60;;;;;;8363506;28;20230;-77
2021/10/16 16:36:16;;;;;;;13.63;6.57;;;14.30;90.00;;;;;;8342048;28;20265;-78
2021/10/16 16:40:17;;;;;;;19.57;7.70;;;14.20;90.00;;;;;;8354597;28;20473;-77
2021/10/16 16:44:18;;;;;;;11.93;5.60;;;14.20;90.50;;;;;;8367305;28;20222;-77
2021/10/16 16:48:18;;;;;;;12.83;6.60;;;14.10;90.60;;;;;;8363005;28;20219;-78
2021/10/16 16:52:19;;;;;;;19.40;6.07;;;14.10;90.40;;;;;;8371969;28;20647;-77
2021/10/16 16:56:22;;;;;;;23.27;8.10;;;14.10;90.40;;;;;;8372770;28;20212;-78
2021/10/16 17:00:22;;;;;;;26.87;15.07;;;14.10;90.60;;;;;;8362081;28;20277;-75
2021/10/16 17:04:23;;;;;;;10.30;6.20;;;14.00;90.50;;;;;;8338743;28;20992;-76
2021/10/16 17:08:24;;;;;;;33.57;5.93;;;13.90;90.60;;;;;;8354355;28;20240;-76
2021/10/16 17:12:25;;;;;;;10.63;6.07;;;13.80;90.20;;;;;;8338661;28;20182;-77
2021/10/16 17:16:25;;;;;;;15.97;5.90;;;13.80;90.00;;;;;;8338794;28;20525;-74
2021/10/16 17:20:27;;;;;;;12.40;6.40;;;13.80;90.60;;;;;;8338182;28;20458;-75
2021/10/16 17:24:27;;;;;;;10.97;6.80;;;13.70;90.80;;;;;;8337811;28;20189;-77
2021/10/16 17:28:28;;;;;;;19.63;6.47;;;13.60;91.20;;;;;;8352474;28;20437;-76
2021/10/16 17:32:29;;;;;;;21.00;8.33;;;13.50;91.40;;;;;;8361863;28;20689;-75
2021/10/16 17:36:31;;;;;;;20.33;7.40;;;13.50;91.70;;;;;;8368866;28;20186;-75
2021/10/16 17:40:32;;;;;;;20.43;10.60;;;13.40;91.60;;;;;;8369359;28;20475;-76
2021/10/16 17:44:33;;;;;;;33.33;16.27;;;13.40;91.70;;;;;;8368818;28;20432;-75
2021/10/16 17:48:33;;;;;;;28.47;15.30;;;13.30;91.40;;;;;;8369412;28;20190;-76
2021/10/16 17:52:37;;;;;;;511.43;300.90;;;13.20;91.60;;;;;;8355964;28;20190;-77
2021/10/16 17:56:41;;;;;;;56.13;26.70;;;13.20;91.90;;;;;;8341724;28;20190;-81
2021/10/16 18:00:42;;;;;;;35.60;18.73;;;13.10;92.30;;;;;;8360070;28;20479;-79
2021/10/16 18:04:43;;;;;;;37.30;15.97;;;13.00;92.50;;;;;;8349140;28;20436;-76
2021/10/16 18:08:44;;;;;;;55.83;32.67;;;13.00;92.70;;;;;;8373721;28;20451;-81
2021/10/16 18:12:44;;;;;;;34.10;17.00;;;12.90;93.00;;;;;;8345257;28;20336;-82
2021/10/16 18:16:46;;;;;;;47.37;26.57;;;12.90;93.10;;;;;;8369839;28;20275;-77
2021/10/16 18:20:46;;;;;;;30.47;17.57;;;12.80;93.20;;;;;;8357663;28;20544;-78
2021/10/16 18:24:48;;;;;;;30.23;15.40;;;12.80;93.50;;;;;;8373261;28;20439;-78
2021/10/16 18:28:48;;;;;;;36.07;15.10;;;12.70;93.40;;;;;;8377569;28;20274;-79
2021/10/16 18:32:49;;;;;;;25.60;13.47;;;12.60;93.50;;;;;;8375836;28;20482;-78
2021/10/16 18:36:49;;;;;;;25.47;12.43;;;12.60;93.70;;;;;;8377710;28;20266;-79
2021/10/16 18:40:50;;;;;;;37.77;19.70;;;12.50;93.90;;;;;;8378295;28;20310;-80
2021/10/16 18:44:53;;;;;;;79.40;40.67;;;12.40;94.10;;;;;;8379044;28;20179;-78
2021/10/16 18:48:53;;;;;;;143.40;75.60;;;12.30;94.40;;;;;;8375992;28;20177;-78
2021/10/16 18:52:54;;;;;;;44.87;23.20;;;12.20;94.70;;;;;;8373886;28;20445;-79
2021/10/16 18:56:55;;;;;;;61.43;26.87;;;12.10;95.00;;;;;;8374164;28;20171;-79
2021/10/16 19:00:56;;;;;;;57.43;26.67;;;12.00;95.40;;;;;;8374774;28;20210;-78
2021/10/16 19:04:57;;;;;;;46.37;23.87;;;11.90;95.70;;;;;;8377592;28;20418;-77
2021/10/16 19:09:00;;;;;;;51.73;24.60;;;11.80;96.00;;;;;;8372770;28;20179;-76
2021/10/16 19:13:01;;;;;;;36.77;20.90;;;11.80;96.20;;;;;;8377844;28;20255;-77
2021/10/16 19:17:02;;;;;;;31.10;13.70;;;11.70;96.40;;;;;;8358666;28;20493;-81
2021/10/16 19:21:03;;;;;;;30.53;14.50;;;11.70;96.10;;;;;;8367128;28;20237;-79
2021/10/16 19:25:05;;;;;;;25.13;11.10;;;11.60;96.00;;;;;;8373171;28;20429;-78
2021/10/16 19:29:08;;;;;;;18.57;11.17;;;11.60;95.90;;;;;;8375071;28;20434;-79
2021/10/16 19:33:10;;;;;;;23.50;12.50;;;11.60;96.00;;;;;;8374621;28;20489;-79
2021/10/16 19:37:10;;;;;;;19.13;11.70;;;11.60;96.00;;;;;;8373752;28;20422;-79
2021/10/16 19:41:11;;;;;;;22.33;12.70;;;11.60;96.30;;;;;;8374288;28;20515;-79
2021/10/16 19:45:13;;;;;;;21.70;12.43;;;11.70;95.90;;;;;;8373024;28;20200;-79
2021/10/16 19:49:14;;;;;;;19.13;11.20;;;11.70;96.00;;;;;;8374467;28;20952;-78
2021/10/16 19:53:15;;;;;;;29.27;10.73;;;11.70;96.10;;;;;;8374547;28;20420;-79
2021/10/16 19:57:15;;;;;;;24.30;10.80;;;11.60;95.90;;;;;;8373652;28;20663;-78
2021/10/16 20:01:16;;;;;;;15.60;10.43;;;11.60;96.00;;;;;;8372756;28;20175;-78
2021/10/16 20:05:18;;;;;;;21.23;10.37;;;11.60;96.00;;;;;;8372456;28;20175;-78
2021/10/16 20:09:19;;;;;;;19.40;11.10;;;11.60;96.20;;;;;;8373049;28;20543;-79
2021/10/16 20:13:20;;;;;;;25.80;14.50;;;11.50;96.40;;;;;;8375907;28;20419;-78
2021/10/16 20:17:20;;;;;;;20.70;12.07;;;11.50;96.60;;;;;;8376237;28;20261;-78
2021/10/16 20:21:21;;;;;;;20.70;11.60;;;11.50;96.60;;;;;;8372435;28;20187;-78
2021/10/16 20:25:22;;;;;;;17.10;10.90;;;11.50;96.60;;;;;;8376110;28;20635;-78
2021/10/16 20:29:22;;;;;;;22.40;11.80;;;11.50;96.80;;;;;;8374159;28;20186;-78
2021/10/16 20:33:24;;;;;;;33.53;12.80;;;11.40;96.80;;;;;;8372397;28;20254;-77
2021/10/16 20:37:25;;;;;;;21.43;13.70;;;11.40;96.50;;;;;;8372659;28;20214;-78
2021/10/16 20:41:27;;;;;;;23.47;13.87;;;11.40;96.30;;;;;;8372782;28;20520;-77
2021/10/16 20:45:28;;;;;;;26.93;13.70;;;11.30;96.00;;;;;;8371796;28;20182;-77